x

South Brooks (46132) Wave Buoy

3:00 - Wed 24th May 2017 All times are PDT. -7 hours from GMT.

  • Sig Wave height 13.8ft
  • Peak Period 10s
  • Wind
    34mph
  • Sea Temp 53°f
  • Ar Temp 51°f
  • Sea Pressure 1018.4mb
  • South Brooks
  • South Brooks

More Historic Weather Station data

Upgrade to MSW Pro to gain access to the past 30 days of data for over 8000 Wavebouys and Weather Stations around the globe.

Join Pro

Comparision Forecast

View Surf forecast
   
Qua 05/24 3:00 14ft 10s 34
mph
1018.4mb 53f 51f
2:00 13.5ft 10s 34 40 mph 1019.4mb 53f 51f
1:00  -   -  31
mph
- - 51f
12:00 11.5ft 10s 31 38 mph 1019.9mb 53f 51f
11:00 11ft 10s 31 38 mph 1020.1mb 53f 51f
10:00 10.5ft 10s 31
mph
1020.3mb 53f 52f
9:00 12ft 9s 25 31 mph 1020.8mb 53f 51f
7:00 12ft 9s 29 36 mph 1020mb 53f 51f
6:00  -   -  27
mph
1020mb - 51f
5:00  -   -  29
mph
- - -
4:00 11ft 9s 29 36 mph 1020.6mb 53f 52f
3:00 11ft 8s 27 36 mph 1020.8mb 53f 52f
2:00 10.5ft 9s 27 34 mph 1021.5mb 53f 51f
1:00 10.5ft 9s 22 27 mph 1021.4mb 53f 51f
12:00 10ft 8s 22 27 mph 1021.2mb 53f 52f
Ter 05/23 11:00 10.5ft 8s 20 27 mph 1021.2mb 53f 51f
10:00  -   -  22
mph
- - 52f
9:00 10ft 8s 22 25 mph 1021.3mb 53f 51f
8:00 10.5ft 8s 22 29 mph 1021.4mb 54f 51f
7:00 10ft 8s 25 29 mph 1021.1mb 54f 51f
6:00 9ft 8s 27 31 mph 1021.1mb 55f 52f
5:00 9.5ft 7s 27 34 mph 1021.4mb 55f 51f
4:00 9ft 7s 27 31 mph 1021.4mb 55f 51f
3:00 8.5ft 7s 27 31 mph 1021.1mb 54f 51f
2:00 9ft 6s 27 31 mph 1020.6mb 54f 51f
1:00 8.5ft 7s 27 31 mph 1020.1mb 54f 52f
12:00 7.5ft 11s 27 31 mph 1019.5mb 54f 52f
11:00 6ft 11s 25 31 mph 1019.5mb 54f 52f
10:00 6.5ft 12s 22 27 mph 1019mb 54f 53f
9:00 6ft 10s 18 22 mph 1019.1mb 54f 52f
8:00 6ft 10s 13 18 mph 1018.9mb 54f 52f
7:00 6ft 10s 11 13 mph 1019.2mb 54f 52f
6:00 6.5ft 10s 11 13 mph 1019.2mb 54f 52f
5:00 6ft 10s 13 18 mph 1019.5mb 54f 52f
4:00 6.5ft 10s 11 16 mph 1019.6mb 54f 53f
3:00 6ft 10s 11 13 mph 1019.8mb 54f 53f
2:00 6ft 11s 11 13 mph 1020.3mb 54f 53f
1:00 5.5ft 11s 13 16 mph 1020.4mb 54f 53f
12:00 6ft 11s 9 11 mph 1020.5mb 53f 54f
Seg 05/22 11:00 6.5ft 10s 13 16 mph 1021mb 53f 54f
10:00 6.5ft 9s 13 18 mph 1020.9mb 53f 53f
9:00 6.5ft 12s 16 20 mph 1021mb 53f 53f
8:00 7ft 10s 18 22 mph 1021.3mb 54f 53f
7:00 6.5ft 10s 16 18 mph 1021.6mb 54f 54f
6:00 6.5ft 12s 11 13 mph 1021.8mb 54f 55f
5:00 6.5ft 11s 13 16 mph 1022.6mb 54f 55f
4:00 7ft 11s 13 16 mph 1023.1mb 54f 55f
3:00 6ft 11s 13 18 mph 1023.5mb 54f 55f
2:00 6ft 11s 13 16 mph 1023.4mb 54f 55f
1:00 7ft 10s 16 18 mph 1023.5mb 54f 55f
12:00 7ft 11s 13 16 mph 1023mb 54f 55f
11:00 6.5ft 11s 20 25 mph 1023.2mb 54f 55f
10:00 6ft 11s 13 18 mph 1022.9mb 54f 55f
9:00 6ft 11s 16 18 mph 1022.8mb 54f 55f
8:00 6ft 10s 16 20 mph 1023mb 54f 55f
7:00 6ft 11s 18 22 mph 1023.1mb 54f 55f
6:00 6ft 10s 16 20 mph 1023.1mb 54f 54f
5:00 6ft 10s 18 20 mph 1023.5mb 54f 54f
4:00 5.5ft 10s 20 25 mph 1024.1mb 54f 54f
3:00 6ft 10s 18 22 mph 1024mb 54f 54f
2:00 6ft 10s 16 18 mph 1023.9mb 54f 55f
1:00 5ft 9s 16 20 mph 1023.9mb 54f 55f
12:00 5.5ft 10s 18 20 mph 1024.2mb 54f 55f
Dom 05/21 11:00 5ft 9s 18 20 mph 1024.3mb 54f 54f
10:00 4.5ft 8s 18 22 mph 1024.5mb 54f 55f
9:00 4.5ft 10s 18 22 mph 1024.5mb 54f 54f
8:00 4.5ft 10s 18 22 mph 1024.6mb 54f 55f
7:00 4.5ft 10s 16 20 mph 1024.8mb 54f 54f
6:00 3.5ft 9s 16 20 mph 1025.1mb 54f 54f
5:00 3.5ft 11s 13 16 mph 1025.8mb 54f 54f
4:00 3ft 9s 13 16 mph 1026.2mb 54f 54f
3:00 3ft 11s 13 16 mph 1026.5mb 54f 54f
2:00 2.5ft 10s 13 18 mph 1026.8mb 54f 52f
1:00 2.5ft 10s 11 13 mph 1026.7mb 54f 51f
12:00 2.5ft 10s 11 13 mph 1026.7mb 54f 51f
11:00 3ft 10s 11 13 mph 1026.4mb 54f 51f
10:00 3ft 15s 11 13 mph 1026.1mb 54f 51f
9:00 3ft 10s 11 16 mph 1025.9mb 54f 51f
8:00 2.5ft 8s 9 13 mph 1025.7mb 54f 51f
7:00 3ft 7s 9 11 mph 1025.4mb 53f 51f
6:00 3ft 10s 13 16 mph 1025.6mb 53f 50f
5:00 3.5ft 10s 9 13 mph 1025.3mb 53f 50f
4:00 3.5ft 10s 11 13 mph 1025.4mb 54f 50f
3:00 3.5ft 8s 11 13 mph 1025.4mb 53f 50f
2:00 3.5ft 8s 11 13 mph 1025.3mb 54f 50f
1:00 3.5ft 10s 13 16 mph 1025mb 54f 50f
12:00 3.5ft 10s 13 18 mph 1025.2mb 54f 50f